Time;durP1;ratioP1;P1;durP2;ratioP2;P2;SDS_P1;SDS_P2;PMS_P1;PMS_P2;Temp;Humidity;BMP_temperature;BMP_pressure;BME280_temperature;BME280_humidity;BME280_pressure;Samples;Min_cycle;Max_cycle;Signal;HPM_P1;HPM_P2
2022/05/11 00:01:15;;;;;;;1.47;1.15;;;;;;;3.53;69.29;101455.60;1842903;77;21489;-65
2022/05/11 00:03:44;;;;;;;4.47;2.05;;;;;;;3.56;69.42;101451.68;1846137;76;21213;-63
2022/05/11 00:06:12;;;;;;;4.30;1.62;;;;;;;3.59;69.40;101448.65;1846539;77;21027;-64
2022/05/11 00:08:41;;;;;;;4.97;1.77;;;;;;;3.63;69.26;101452.12;1848123;76;21039;-63
2022/05/11 00:11:10;;;;;;;3.67;1.67;;;;;;;3.66;69.43;101448.23;1849454;77;21028;-63
2022/05/11 00:13:39;;;;;;;2.95;1.42;;;;;;;3.72;69.24;101445.62;1814249;77;21539;-63
2022/05/11 00:16:07;;;;;;;1.62;1.47;;;;;;;3.78;69.17;101449.55;1827255;78;21070;-63
2022/05/11 00:18:36;;;;;;;1.55;1.12;;;;;;;3.79;69.04;101442.16;1821264;78;21104;-64
2022/05/11 00:21:05;;;;;;;2.95;1.32;;;;;;;3.79;68.84;101446.50;1855734;76;21045;-63
2022/05/11 00:23:37;;;;;;;1.20;1.07;;;;;;;3.79;68.87;101443.45;1864957;76;21219;-64
2022/05/11 00:26:07;;;;;;;2.08;1.20;;;;;;;3.79;69.02;101437.39;1841907;76;21123;-63
2022/05/11 00:28:36;;;;;;;2.55;1.47;;;;;;;3.78;69.63;101436.53;1907445;74;21060;-63
2022/05/11 00:31:05;;;;;;;1.10;0.85;;;;;;;3.79;69.85;101436.09;1924540;74;21502;-62
2022/05/11 00:33:34;;;;;;;5.50;1.92;;;;;;;3.82;70.03;101436.95;1924432;74;21029;-63
2022/05/11 00:36:03;;;;;;;3.27;1.70;;;;;;;3.86;70.33;101433.47;1924441;74;21052;-62
2022/05/11 00:38:53;;;;;;;5.42;2.52;;;;;;;3.91;70.65;101429.58;1924635;74;21444;-64
2022/05/11 00:41:21;;;;;;;4.15;2.05;;;;;;;3.95;70.76;101426.54;1900516;75;21127;-61
2022/05/11 00:43:59;;;;;;;3.22;1.75;;;;;;;4.00;71.07;101426.08;1900520;75;20997;-61
2022/05/11 00:46:49;;;;;;;3.83;2.27;;;;;;;4.05;71.28;101421.29;1900433;75;21033;-61
2022/05/11 00:49:35;;;;;;;6.08;2.25;;;;;;;4.10;71.21;101422.61;1900496;75;21472;-62
2022/05/11 00:52:09;;;;;;;8.28;1.80;;;;;;;4.13;71.06;101421.31;1900584;75;21555;-60
2022/05/11 00:54:44;;;;;;;2.65;1.50;;;;;;;4.15;71.06;101422.17;1898605;75;21038;-60
2022/05/11 00:57:18;;;;;;;2.67;1.95;;;;;;;4.17;71.21;101418.23;1899110;74;21036;-61
2022/05/11 00:59:49;;;;;;;4.95;1.92;;;;;;;4.20;71.24;101424.30;1900481;74;21036;-61
2022/05/11 01:02:20;;;;;;;4.97;2.15;;;;;;;4.22;71.40;101421.70;1900519;74;21615;-63
2022/05/11 01:04:51;;;;;;;9.28;1.80;;;;;;;4.21;71.67;101423.45;1900466;75;21126;-62
2022/05/11 01:07:19;;;;;;;7.30;1.72;;;;;;;4.21;71.92;101424.75;1900641;75;21412;-62
2022/05/11 01:09:48;;;;;;;3.00;1.67;;;;;;;4.18;72.32;101428.66;1900516;75;21032;-64
2022/05/11 01:12:20;;;;;;;2.27;1.20;;;;;;;4.16;72.81;101422.59;1900458;75;21017;-63
2022/05/11 01:14:51;;;;;;;8.15;1.87;;;;;;;4.14;73.10;101424.33;1900319;74;21158;-61
2022/05/11 01:17:24;;;;;;;2.80;1.65;;;;;;;4.14;73.22;101426.08;1900586;75;21557;-61
2022/05/11 01:19:53;;;;;;;1.60;1.32;;;;;;;4.13;73.40;101421.72;1900377;74;21033;-63
2022/05/11 01:22:24;;;;;;;7.92;2.37;;;;;;;4.14;73.47;101419.11;1900542;75;21106;-62
2022/05/11 01:24:53;;;;;;;3.65;1.92;;;;;;;4.16;73.72;101416.06;1899936;75;21114;-64
2022/05/11 01:27:31;;;;;;;5.28;3.70;;;;;;;4.21;74.22;101416.94;1900424;74;21114;-64
2022/05/11 01:30:02;;;;;;;7.08;3.50;;;;;;;4.25;74.94;101413.44;1900492;75;21032;-61
2022/05/11 01:32:31;;;;;;;8.23;2.15;;;;;;;4.33;75.36;101412.56;1900480;75;21107;-61
2022/05/11 01:35:21;;;;;;;4.85;2.77;;;;;;;4.43;75.41;101418.20;1900476;75;21089;-63
2022/05/11 01:37:56;;;;;;;5.65;2.25;;;;;;;4.49;75.52;101415.56;1865325;75;21522;-62
2022/05/11 01:40:24;;;;;;;7.35;2.75;;;;;;;4.56;75.85;101415.98;1898545;74;21455;-63
2022/05/11 01:42:53;;;;;;;7.05;3.12;;;;;;;4.62;75.93;101412.47;1900546;75;21040;-63
2022/05/11 01:45:22;;;;;;;4.47;1.85;;;;;;;4.67;76.23;101399.40;1900599;75;21021;-64
2022/05/11 01:47:52;;;;;;;5.67;2.58;;;;;;;4.73;76.52;101409.39;1900700;74;21151;-62
2022/05/11 01:50:21;;;;;;;3.98;2.25;;;;;;;4.75;76.64;101401.11;1900512;75;21144;-63
2022/05/11 01:52:50;;;;;;;4.53;2.92;;;;;;;4.81;76.75;101406.73;1900515;75;21114;-62
2022/05/11 01:55:18;;;;;;;6.67;3.08;;;;;;;4.88;76.83;101398.01;1900540;75;21545;-65
2022/05/11 01:57:51;;;;;;;5.20;2.60;;;;;;;4.95;77.02;101393.19;1900537;75;21044;-65
2022/05/11 02:03:09;;;;;;;8.70;6.33;;;;;;;5.16;77.52;101400.47;1834818;77;21167;-64
2022/05/11 02:08:28;;;;;;;14.03;7.03;;;;;;;5.47;79.08;101395.05;1834839;78;21487;-66
2022/05/11 02:10:57;;;;;;;19.85;7.30;;;;;;;5.61;79.64;101390.59;1835033;77;21561;-61
2022/05/11 02:13:27;;;;;;;23.92;11.97;;;;;;;5.73;79.92;101394.38;1833506;78;21022;-61
2022/05/11 02:15:57;;;;;;;27.80;14.20;;;;;;;5.85;80.30;101393.43;1833591;78;21128;-61
2022/05/11 02:18:26;;;;;;;30.80;15.60;;;;;;;5.96;80.50;101394.23;1833482;78;21082;-61
2022/05/11 02:21:13;;;;;;;28.23;16.12;;;;;;;6.09;80.98;101400.66;1951211;73;21061;-61
2022/05/11 02:23:43;;;;;;;16.10;6.15;;;;;;;6.19;81.21;101399.21;1917638;74;21526;-62
2022/05/11 02:26:13;;;;;;;10.65;5.80;;;;;;;6.29;81.47;101391.27;1951039;73;21009;-62
2022/05/11 02:28:42;;;;;;;11.30;5.67;;;;;;;6.41;81.79;101400.75;1950508;73;21048;-61
2022/05/11 02:31:11;;;;;;;5.92;3.77;;;;;;;6.49;81.85;101401.09;1949248;73;21043;-61
2022/05/11 02:33:40;;;;;;;3.02;2.42;;;;;;;6.54;81.53;101401.02;1949211;73;21156;-64
2022/05/11 02:36:08;;;;;;;7.53;3.98;;;;;;;6.58;81.28;101402.72;1949061;73;21127;-64
2022/05/11 02:38:39;;;;;;;8.58;4.40;;;;;;;6.63;81.17;101405.29;1949136;73;21102;-64
2022/05/11 02:41:07;;;;;;;7.78;3.50;;;;;;;6.69;81.34;101403.89;1947478;73;21027;-61
2022/05/11 02:43:36;;;;;;;8.15;3.98;;;;;;;6.75;81.36;101408.62;1927218;73;21167;-61
2022/05/11 02:46:05;;;;;;;5.05;3.15;;;;;;;6.80;81.19;101405.08;1978039;72;21023;-61
2022/05/11 02:48:34;;;;;;;5.45;3.08;;;;;;;6.85;81.33;101405.89;1926597;74;21027;-63
2022/05/11 02:51:04;;;;;;;6.33;2.42;;;;;;;6.90;81.15;101408.88;1938885;73;21172;-62
2022/05/11 02:53:33;;;;;;;10.88;3.12;;;;;;;6.93;80.98;101398.37;1949234;73;21031;-62
2022/05/11 02:56:02;;;;;;;7.00;2.70;;;;;;;6.98;80.79;101403.98;1949206;73;21552;-64
2022/05/11 02:58:33;;;;;;;7.40;3.20;;;;;;;7.02;80.67;101405.66;1949010;73;21133;-64
2022/05/11 03:01:04;;;;;;;8.63;2.65;;;;;;;7.08;80.61;101411.69;1944956;73;21027;-63
2022/05/11 03:03:36;;;;;;;8.90;3.35;;;;;;;7.14;80.47;101414.67;1949185;73;21034;-62
2022/05/11 03:06:06;;;;;;;6.05;2.20;;;;;;;7.19;80.63;101411.52;1949277;73;21028;-63
2022/05/11 03:08:36;;;;;;;4.55;2.52;;;;;;;7.26;80.66;101418.40;1949285;73;21027;-62
2022/05/11 03:11:06;;;;;;;5.47;3.02;;;;;;;7.33;80.84;101417.42;1945115;73;21717;-62
2022/05/11 03:13:34;;;;;;;5.15;2.02;;;;;;;7.42;80.85;101426.91;1949181;73;21109;-63
2022/05/11 03:16:03;;;;;;;6.12;2.83;;;;;;;7.48;80.70;101426.81;1949139;73;21113;-64
2022/05/11 03:18:32;;;;;;;6.87;3.17;;;;;;;7.53;80.54;101432.00;1949263;73;21032;-63
2022/05/11 03:21:01;;;;;;;7.75;2.52;;;;;;;7.59;80.31;101433.20;1948819;73;21110;-65
2022/05/11 03:23:30;;;;;;;4.15;1.95;;;;;;;7.65;80.02;101440.10;1944831;74;21522;-65
2022/05/11 03:25:58;;;;;;;4.28;1.67;;;;;;;7.66;79.59;101446.64;1948407;73;21097;-67
2022/05/11 03:28:32;;;;;;;9.15;3.65;;;;;;;7.68;79.19;101446.62;1947643;74;21035;-68
2022/05/11 03:30:57;;;;;;;6.55;3.20;;;;;;;7.68;78.82;101446.16;1896803;75;21108;-68
2022/05/11 03:36:12;;;;;;;5.33;2.90;;;;;;;7.67;78.16;101439.63;1920868;75;21111;-66
2022/05/11 03:38:41;;;;;;;4.92;2.92;;;;;;;7.70;77.85;101436.52;1920802;75;21830;-65
2022/05/11 03:41:10;;;;;;;4.25;2.10;;;;;;;7.75;77.60;101433.84;1917499;73;21039;-63
2022/05/11 03:43:38;;;;;;;3.17;1.95;;;;;;;7.80;77.37;101429.81;1915527;75;21031;-60
2022/05/11 03:46:07;;;;;;;3.92;2.25;;;;;;;7.85;77.17;101441.09;1915469;75;21051;-61
2022/05/11 03:48:37;;;;;;;4.70;1.87;;;;;;;7.89;76.92;101433.59;1915564;75;21110;-61
2022/05/11 03:51:06;;;;;;;1.32;1.10;;;;;;;7.97;77.15;101417.72;1915347;75;21519;-62
2022/05/11 03:53:37;;;;;;;4.25;1.82;;;;;;;8.13;78.15;101407.38;1916249;73;21474;-60
2022/05/11 03:56:06;;;;;;;5.62;2.42;;;;;;;8.27;78.80;101395.34;1949056;73;21530;-63
2022/05/11 03:58:35;;;;;;;5.97;2.67;;;;;;;8.41;79.74;101368.81;1949142;73;21482;-60
2022/05/11 04:01:04;;;;;;;5.35;2.40;;;;;;;8.54;80.54;101349.77;1942148;73;21117;-61
2022/05/11 04:03:34;;;;;;;3.65;2.45;;;;;;;8.73;78.76;101352.89;1915328;75;21035;-60
2022/05/11 04:06:03;;;;;;;9.00;2.70;;;;;;;9.05;77.90;101362.67;1940014;73;21093;-63
2022/05/11 04:08:32;;;;;;;7.62;2.83;;;;;;;9.18;77.79;101358.00;1920649;73;21075;-65
2022/05/11 04:11:02;;;;;;;3.33;2.08;;;;;;;9.28;77.37;101376.15;1915386;75;21015;-68
2022/05/11 04:13:31;;;;;;;2.50;1.70;;;;;;;9.42;76.89;101385.47;1915597;75;21433;-60
2022/05/11 04:15:59;;;;;;;2.27;1.45;;;;;;;9.58;75.96;101380.71;1917478;73;21039;-63
2022/05/11 04:18:28;;;;;;;3.67;1.67;;;;;;;9.75;75.05;101375.02;1915454;75;21051;-62
2022/05/11 04:20:57;;;;;;;4.83;3.20;;;;;;;9.89;74.85;101390.01;1915604;75;21149;-63
2022/05/11 04:23:26;;;;;;;5.35;2.60;;;;;;;10.01;74.67;101378.28;1902404;74;21051;-63
2022/05/11 04:25:55;;;;;;;3.77;1.72;;;;;;;10.09;74.75;101403.97;2013879;71;21016;-63
2022/05/11 04:28:24;;;;;;;4.40;2.35;;;;;;;10.18;74.97;101406.78;1926689;74;21391;-66
2022/05/11 04:31:04;;;;;;;3.75;1.80;;;;;;;10.24;74.71;101404.00;2013844;71;21063;-67
2022/05/11 04:33:33;;;;;;;6.90;2.33;;;;;;;10.31;73.34;101414.81;1925844;74;21059;-65
2022/05/11 04:36:01;;;;;;;6.83;2.62;;;;;;;10.45;72.73;101417.52;2013807;71;21149;-64
2022/05/11 04:38:30;;;;;;;5.28;2.27;;;;;;;10.52;72.97;101412.48;1926642;74;21105;-64
2022/05/11 04:40:59;;;;;;;4.65;2.27;;;;;;;10.57;72.97;101418.50;2013686;71;20992;-67
2022/05/11 04:43:27;;;;;;;4.67;2.12;;;;;;;10.59;72.83;101414.91;1926835;74;21039;-65
2022/05/11 04:45:58;;;;;;;4.12;2.00;;;;;;;10.62;72.49;101408.67;2013588;71;21023;-66
2022/05/11 04:48:28;;;;;;;3.98;2.27;;;;;;;10.68;72.10;101415.53;1917431;74;21026;-63
2022/05/11 04:51:02;;;;;;;2.98;1.50;;;;;;;10.71;71.26;101416.31;1951044;73;21460;-63
2022/05/11 04:53:31;;;;;;;3.50;1.50;;;;;;;10.79;70.46;101424.02;1918289;74;21621;-64
2022/05/11 04:56:00;;;;;;;3.72;1.75;;;;;;;10.87;69.20;101429.05;2013683;71;21004;-65
2022/05/11 04:58:29;;;;;;;3.12;1.47;;;;;;;10.94;68.00;101430.61;1926717;74;21125;-64
2022/05/11 05:00:59;;;;;;;2.60;1.42;;;;;;;11.04;67.99;101434.67;2013744;71;21060;-63
2022/05/11 05:03:27;;;;;;;2.75;1.37;;;;;;;11.11;66.46;101436.22;1926316;74;21473;-64
2022/05/11 05:05:56;;;;;;;2.50;1.55;;;;;;;11.15;64.73;101437.84;1923768;74;21022;-63
2022/05/11 05:08:25;;;;;;;1.00;0.85;;;;;;;11.23;64.44;101432.34;1916996;75;21050;-63
2022/05/11 05:10:53;;;;;;;2.95;1.30;;;;;;;11.30;64.11;101443.11;1882536;76;21128;-63
2022/05/11 05:13:22;;;;;;;4.45;2.20;;;;;;;11.40;63.61;101443.70;1916992;74;21089;-64
2022/05/11 05:15:53;;;;;;;2.52;1.27;;;;;;;11.51;63.76;101450.82;1882664;76;21042;-63
2022/05/11 05:18:22;;;;;;;2.92;1.50;;;;;;;11.62;63.60;101448.28;1916973;74;21073;-61
2022/05/11 05:20:55;;;;;;;2.27;1.47;;;;;;;11.74;63.25;101454.49;1911667;74;21023;-62
2022/05/11 05:23:24;;;;;;;1.77;0.90;;;;;;;11.82;62.37;101447.17;2014105;71;21093;-61
2022/05/11 05:25:53;;;;;;;2.15;1.22;;;;;;;11.94;62.25;101453.87;1926700;74;21078;-66
2022/05/11 05:31:11;;;;;;;1.95;1.10;;;;;;;12.28;61.82;101449.64;1926627;74;21012;-65
2022/05/11 05:33:40;;;;;;;3.12;1.27;;;;;;;12.42;60.44;101456.20;2013802;71;21052;-65
2022/05/11 05:36:10;;;;;;;3.58;1.47;;;;;;;12.54;60.31;101447.83;1921438;74;21458;-64
2022/05/11 05:38:41;;;;;;;1.45;1.05;;;;;;;12.72;60.41;101456.41;2013915;71;21069;-64
2022/05/11 05:41:12;;;;;;;1.92;1.27;;;;;;;12.93;60.58;101455.23;2013892;71;21016;-64
2022/05/11 05:43:41;;;;;;;4.92;1.47;;;;;;;13.05;59.42;101445.50;2013810;71;21073;-62
2022/05/11 05:46:09;;;;;;;4.78;1.17;;;;;;;13.20;59.63;101451.98;2012157;71;21086;-63
2022/05/11 05:48:38;;;;;;;4.30;1.50;;;;;;;13.42;59.63;101448.53;2013847;71;21024;-65
2022/05/11 05:51:10;;;;;;;2.27;1.10;;;;;;;13.60;58.14;101433.25;2013834;71;21081;-65
2022/05/11 05:53:42;;;;;;;3.50;1.60;;;;;;;13.82;57.43;101447.78;1994776;71;21088;-68
2022/05/11 05:56:13;;;;;;;4.20;1.65;;;;;;;13.84;54.93;101434.02;1993662;72;21537;-65
2022/05/11 05:58:49;;;;;;;1.50;0.95;;;;;;;13.95;54.24;101421.66;1993739;72;21085;-63
2022/05/11 06:01:20;;;;;;;1.20;1.03;;;;;;;14.06;53.95;101422.06;2001687;71;21004;-64
2022/05/11 06:03:46;;;;;;;5.67;1.47;;;;;;;14.22;54.46;101440.81;2012410;71;21024;-65
2022/05/11 06:06:15;;;;;;;2.95;1.30;;;;;;;14.33;51.88;101428.88;2013775;71;21482;-64
2022/05/11 06:08:43;;;;;;;2.37;1.00;;;;;;;14.41;51.25;101426.77;2013674;71;21107;-63
2022/05/11 06:11:12;;;;;;;1.70;0.95;;;;;;;14.60;50.36;101430.33;2004991;71;21101;-63
2022/05/11 06:13:45;;;;;;;1.87;1.10;;;;;;;14.83;49.30;101431.11;1993640;72;21104;-65
2022/05/11 06:16:18;;;;;;;3.20;1.32;;;;;;;15.18;48.83;101431.22;1993309;72;21108;-63
2022/05/11 06:18:46;;;;;;;5.70;1.40;;;;;;;15.69;47.40;101426.98;1992702;72;21493;-66
2022/05/11 06:21:16;;;;;;;10.00;1.47;;;;;;;15.85;46.67;101438.22;1997093;71;21462;-63
2022/05/11 06:23:45;;;;;;;1.80;1.10;;;;;;;15.95;46.35;101421.75;1925501;74;21122;-63
2022/05/11 06:26:16;;;;;;;5.55;1.22;;;;;;;16.08;46.47;101417.97;1925409;74;21039;-66
2022/05/11 06:28:47;;;;;;;2.17;1.42;;;;;;;16.29;47.18;101429.30;1941125;73;21025;-62
2022/05/11 06:31:16;;;;;;;1.55;1.10;;;;;;;16.34;44.84;101421.08;1941918;73;21023;-63
2022/05/11 06:33:51;;;;;;;4.95;1.37;;;;;;;16.75;46.11;101427.34;1940487;74;21023;-61
2022/05/11 06:36:14;;;;;;;2.85;1.00;;;;;;;17.20;44.00;101422.27;1938978;74;21032;-61
2022/05/11 06:38:44;;;;;;;2.37;0.88;;;;;;;17.63;43.68;101423.80;1940716;74;21118;-61
2022/05/11 06:41:19;;;;;;;1.27;1.00;;;;;;;17.68;41.68;101419.07;1940614;74;21533;-63
2022/05/11 06:43:49;;;;;;;2.27;1.10;;;;;;;17.79;41.71;101405.13;1940602;74;21030;-65
2022/05/11 06:46:18;;;;;;;2.62;1.10;;;;;;;17.86;40.27;101415.84;1941914;73;21055;-68
2022/05/11 06:48:48;;;;;;;1.80;0.88;;;;;;;17.57;40.47;101423.68;1940653;74;21060;-65
2022/05/11 06:51:21;;;;;;;7.05;1.05;;;;;;;17.43;41.51;101412.51;1940684;74;21454;-68
2022/05/11 06:59:28;;;;;;;3.80;1.62;;;;;;;18.27;41.39;101416.50;1925347;73;21469;-63
2022/05/11 07:01:59;;;;;;;2.83;1.22;;;;;;;18.49;40.90;101418.23;1959742;73;21027;-62
2022/05/11 07:04:28;;;;;;;2.65;1.20;;;;;;;18.70;39.74;101407.17;1918174;74;21010;-63
2022/05/11 07:06:59;;;;;;;4.37;0.95;;;;;;;18.88;39.86;101418.05;1940226;73;21535;-63
2022/05/11 07:09:31;;;;;;;2.35;1.20;;;;;;;18.94;39.84;101419.95;1942563;74;21059;-63
2022/05/11 07:14:50;;;;;;;2.22;0.88;;;;;;;19.44;38.65;101409.15;1942580;74;21016;-65
2022/05/11 07:17:38;;;;;;;2.45;1.15;;;;;;;19.91;38.11;101417.67;1942585;74;21043;-64
2022/05/11 07:20:11;;;;;;;2.67;1.30;;;;;;;20.41;37.29;101418.19;1932838;74;21040;-64
2022/05/11 07:22:40;;;;;;;2.95;1.12;;;;;;;20.64;36.80;101415.77;1940657;73;21056;-62
2022/05/11 07:25:11;;;;;;;2.08;1.20;;;;;;;20.44;36.26;101411.30;1941167;74;21528;-67
2022/05/11 07:27:40;;;;;;;1.80;1.07;;;;;;;19.96;36.38;101416.41;1921230;75;21043;-67
2022/05/11 07:30:11;;;;;;;3.47;1.30;;;;;;;19.55;35.06;101412.00;1919326;74;21148;-65
2022/05/11 07:32:39;;;;;;;1.40;0.85;;;;;;;19.36;36.62;101403.47;1892372;75;21023;-69
2022/05/11 07:35:09;;;;;;;2.50;1.25;;;;;;;19.37;37.35;101414.05;1915115;75;21036;-66
2022/05/11 07:37:38;;;;;;;4.03;1.52;;;;;;;19.41;37.09;101410.70;1904881;75;21031;-65
2022/05/11 07:40:09;;;;;;;2.40;1.32;;;;;;;19.38;35.79;101413.08;1929677;74;21074;-66
2022/05/11 07:42:38;;;;;;;1.77;1.05;;;;;;;19.68;34.98;101414.22;1929534;74;21106;-65
2022/05/11 07:45:07;;;;;;;2.15;1.25;;;;;;;20.33;34.77;101409.86;1929645;74;21047;-69
2022/05/11 07:47:36;;;;;;;2.30;1.35;;;;;;;21.02;34.24;101410.81;1929670;74;21027;-68
2022/05/11 07:50:06;;;;;;;3.95;1.32;;;;;;;21.71;34.24;101410.26;1935109;74;21019;-63
2022/05/11 07:52:41;;;;;;;4.17;1.55;;;;;;;21.98;33.31;101404.59;1932901;73;21096;-66
2022/05/11 07:55:11;;;;;;;8.05;1.07;;;;;;;22.22;33.27;101400.50;1897815;75;21108;-67
2022/05/11 08:00:27;;;;;;;1.52;1.00;;;;;;;22.75;32.73;101396.77;1936308;74;21037;-67
2022/05/11 08:02:56;;;;;;;0.93;0.65;;;;;;;23.29;32.36;101389.77;1936357;74;21461;-68
2022/05/11 08:05:25;;;;;;;3.47;1.50;;;;;;;23.47;32.35;101395.42;1936450;74;21470;-68
2022/05/11 08:07:59;;;;;;;2.37;1.12;;;;;;;23.59;30.61;101379.25;1936343;74;21478;-67
2022/05/11 08:10:30;;;;;;;2.87;1.25;;;;;;;23.62;30.29;101383.88;1931433;74;21019;-68
2022/05/11 08:13:00;;;;;;;1.82;0.90;;;;;;;23.66;29.29;101377.75;1929545;74;21047;-67
2022/05/11 08:15:31;;;;;;;2.22;1.00;;;;;;;23.77;29.72;101387.61;1929601;74;21109;-68
2022/05/11 08:18:01;;;;;;;2.75;1.00;;;;;;;23.60;30.09;101381.81;1929701;74;21008;-71
2022/05/11 08:20:33;;;;;;;3.60;0.90;;;;;;;23.79;29.84;101375.79;1929640;74;21422;-68
2022/05/11 08:23:04;;;;;;;0.93;0.70;;;;;;;23.90;29.37;101369.46;1929866;73;21061;-66
2022/05/11 08:25:36;;;;;;;0.80;0.75;;;;;;;23.62;27.76;101377.16;1945631;74;21031;-66
2022/05/11 08:28:25;;;;;;;2.45;1.17;;;;;;;23.42;28.67;101369.42;1945449;73;21027;-66
2022/05/11 08:33:42;;;;;;;2.58;0.90;;;;;;;23.00;29.86;101359.02;1921289;75;21151;-64
2022/05/11 08:36:17;;;;;;;2.47;0.78;;;;;;;21.72;29.44;101367.23;1921336;75;21010;-64
2022/05/11 08:38:49;;;;;;;2.52;1.07;;;;;;;21.84;29.26;101369.48;1921160;75;21030;-64
2022/05/11 08:41:29;;;;;;;1.95;0.90;;;;;;;22.54;29.68;101354.23;1921317;75;21090;-62
2022/05/11 08:44:09;;;;;;;1.40;1.00;;;;;;;22.72;26.15;101355.44;1919895;75;21191;-64
2022/05/11 08:46:53;;;;;;;0.70;0.60;;;;;;;22.23;26.56;101342.36;1921424;75;21112;-63
2022/05/11 08:49:41;;;;;;;1.72;1.00;;;;;;;21.98;27.53;101359.02;1921260;75;21567;-64
2022/05/11 08:52:18;;;;;;;0.80;0.70;;;;;;;21.37;28.68;101358.66;1921282;75;21026;-66
2022/05/11 08:54:50;;;;;;;0.80;0.57;;;;;;;20.97;28.42;101367.45;1920711;75;21061;-64
2022/05/11 08:57:27;;;;;;;2.20;0.60;;;;;;;21.12;28.66;101362.33;1921278;75;21035;-66
2022/05/11 08:59:56;;;;;;;;;;;;;;;21.71;28.49;101344.59;1923496;74;21047;-65
2022/05/11 09:02:27;;;;;;;0.93;0.50;;;;;;;22.05;27.30;101362.92;1921427;74;20144;-67
2022/05/11 09:04:59;;;;;;;2.90;0.60;;;;;;;21.73;27.98;101353.37;1919546;75;21062;-66
2022/05/11 09:07:33;;;;;;;0.85;0.57;;;;;;;21.84;27.46;101348.03;1921341;75;21601;-67
2022/05/11 09:10:02;;;;;;;1.65;0.70;;;;;;;21.71;27.07;101348.61;1920251;75;21058;-67
2022/05/11 09:12:31;;;;;;;4.55;1.10;;;;;;;21.22;27.56;101347.77;1921431;75;21030;-67
2022/05/11 09:15:01;;;;;;;3.67;1.00;;;;;;;20.66;27.36;101347.41;1921429;75;21082;-67
2022/05/11 09:17:32;;;;;;;1.92;0.60;;;;;;;20.23;28.43;101349.95;1921309;75;21457;-66
2022/05/11 09:20:10;;;;;;;1.40;0.88;;;;;;;20.16;29.13;101359.36;1921313;74;21035;-67
2022/05/11 09:22:42;;;;;;;1.52;0.78;;;;;;;20.56;28.80;101356.55;1921375;75;21038;-67
2022/05/11 09:25:31;;;;;;;1.30;0.70;;;;;;;21.57;27.73;101346.47;1902283;75;21124;-67
2022/05/11 09:28:23;;;;;;;1.25;0.65;;;;;;;22.42;26.51;101348.48;1921474;75;21543;-67
2022/05/11 09:31:08;;;;;;;1.55;0.68;;;;;;;22.78;26.29;101337.97;1913424;75;21070;-66
2022/05/11 09:33:42;;;;;;;2.02;0.80;;;;;;;22.08;25.42;101337.72;1911938;75;21497;-66
2022/05/11 09:36:12;;;;;;;1.45;0.80;;;;;;;21.41;26.28;101348.57;1908905;75;21062;-67
2022/05/11 09:38:43;;;;;;;0.80;0.80;;;;;;;20.73;26.30;101342.87;1911751;75;21109;-67
2022/05/11 09:41:41;;;;;;;1.67;0.90;;;;;;;20.28;27.20;101347.81;1911676;75;21031;-66
2022/05/11 09:44:41;;;;;;;4.85;1.10;;;;;;;20.10;27.71;101349.09;1829571;78;21054;-66
2022/05/11 09:47:33;;;;;;;1.87;0.68;;;;;;;20.10;28.10;101353.11;1829454;78;21129;-67
2022/05/11 09:50:23;;;;;;;1.00;0.70;;;;;;;20.70;25.06;101349.77;1843579;78;21070;-67
2022/05/11 09:52:54;;;;;;;0.40;0.40;;;;;;;20.45;25.11;101351.96;1804346;79;21084;-67
2022/05/11 09:55:32;;;;;;;1.87;0.75;;;;;;;20.46;26.03;101348.83;1832802;78;21585;-67
2022/05/11 09:58:06;;;;;;;2.80;0.90;;;;;;;20.41;26.76;101352.66;1843640;78;21091;-67
2022/05/11 10:00:38;;;;;;;;;;;;;;;20.47;27.12;101356.72;1846502;78;21086;-67
2022/05/11 10:03:16;;;;;;;0.55;0.45;;;;;;;20.65;26.28;101353.73;1843889;77;20151;-68
2022/05/11 10:05:47;;;;;;;0.85;0.70;;;;;;;20.83;27.25;101349.23;1843853;78;21145;-67
2022/05/11 10:11:27;;;;;;;4.47;1.07;;;;;;;21.51;26.56;101336.23;1839126;77;21065;-67
2022/05/11 10:22:57;;;;;;;0.50;0.50;;;;;;;20.79;25.19;101325.02;1807288;78;21042;-67
2022/05/11 10:25:38;;;;;;;0.90;0.68;;;;;;;20.47;25.72;101327.30;1807382;78;21070;-67
2022/05/11 10:28:28;;;;;;;0.65;0.60;;;;;;;20.23;25.03;101332.56;1798519;78;21038;-66
2022/05/11 10:31:18;;;;;;;1.75;0.82;;;;;;;20.13;25.63;101342.21;1807384;78;21014;-67
2022/05/11 10:34:11;;;;;;;2.25;0.80;;;;;;;20.42;26.11;101343.69;1807266;79;21140;-66
2022/05/11 10:36:57;;;;;;;4.65;0.98;;;;;;;20.93;26.60;101337.86;1807310;78;21555;-67
2022/05/11 10:39:27;;;;;;;;;;;;;;;21.61;26.61;101340.89;1811591;77;21188;-68
2022/05/11 10:42:34;;;;;;;3.60;1.17;;;;;;;21.61;25.18;101339.55;1826927;78;20226;-66
2022/05/11 10:45:32;;;;;;;1.62;0.85;;;;;;;21.37;25.96;101345.76;1828239;77;21160;-67
2022/05/11 10:48:28;;;;;;;3.10;0.93;;;;;;;21.06;26.09;101349.37;1797521;79;21541;-67
2022/05/11 10:51:03;;;;;;;1.70;0.80;;;;;;;20.80;26.63;101349.48;1796984;80;21058;-66
2022/05/11 10:53:38;;;;;;;1.98;1.37;;;;;;;20.98;26.11;101347.27;1828117;77;21087;-67
2022/05/11 10:56:23;;;;;;;2.52;0.88;;;;;;;20.87;26.18;101342.34;1799447;80;21169;-67
2022/05/11 10:59:11;;;;;;;4.22;1.17;;;;;;;20.38;24.92;101352.89;1798801;80;21066;-68
2022/05/11 11:01:49;;;;;;;2.02;0.90;;;;;;;20.13;25.63;101351.57;1827221;78;21524;-68
2022/05/11 11:04:23;;;;;;;2.12;1.02;;;;;;;19.98;26.37;101354.83;1800506;78;21048;-68
2022/05/11 11:07:15;;;;;;;4.58;0.75;;;;;;;19.85;26.65;101354.81;1799444;80;21105;-67
2022/05/11 11:09:49;;;;;;;2.40;0.90;;;;;;;19.65;26.86;101359.65;1799595;80;21047;-67
2022/05/11 11:12:51;;;;;;;1.92;0.60;;;;;;;19.64;26.93;101357.95;1798300;78;21043;-68
2022/05/11 11:15:22;;;;;;;1.12;0.62;;;;;;;19.72;26.84;101355.25;1866046;75;21099;-68
2022/05/11 11:17:52;;;;;;;1.52;0.80;;;;;;;19.82;26.67;101357.69;1865926;77;21044;-67
2022/05/11 11:20:23;;;;;;;1.15;0.80;;;;;;;19.93;26.74;101354.28;1862867;76;21506;-67
2022/05/11 11:23:14;;;;;;;1.47;0.82;;;;;;;20.08;26.12;101334.50;1862832;77;21072;-67
2022/05/11 11:25:58;;;;;;;1.67;0.80;;;;;;;20.35;25.61;101328.19;1865764;77;21221;-67
2022/05/11 11:28:29;;;;;;;2.40;1.00;;;;;;;20.25;24.60;101351.56;1865555;75;21101;-66
2022/05/11 11:31:08;;;;;;;1.32;1.05;;;;;;;19.88;24.74;101336.36;1862835;77;21159;-66
2022/05/11 11:33:42;;;;;;;2.83;1.10;;;;;;;19.53;26.25;101339.13;1864901;77;21122;-67
2022/05/11 11:36:28;;;;;;;1.92;0.80;;;;;;;19.38;26.70;101348.99;1869680;75;21103;-67
2022/05/11 11:38:59;;;;;;;2.12;1.32;;;;;;;19.42;27.26;101344.30;1862815;77;21170;-66
2022/05/11 11:41:32;;;;;;;4.40;1.10;;;;;;;19.58;27.48;101342.31;1865890;77;21087;-66
2022/05/11 11:44:08;;;;;;;1.05;0.82;;;;;;;19.96;27.62;101338.89;1859375;75;21054;-67
2022/05/11 11:46:42;;;;;;;1.62;0.75;;;;;;;20.19;27.53;101337.27;1858092;75;21132;-66
2022/05/11 11:49:14;;;;;;;2.35;1.00;;;;;;;20.15;27.42;101330.92;1853758;75;21049;-67
2022/05/11 11:52:02;;;;;;;1.22;0.93;;;;;;;20.13;25.35;101343.06;1857541;75;21069;-67
2022/05/11 11:54:50;;;;;;;2.35;0.90;;;;;;;19.90;26.30;101347.34;1853769;76;21513;-67
2022/05/11 11:57:28;;;;;;;1.07;0.80;;;;;;;19.68;27.22;101343.42;1853358;75;21070;-67
2022/05/11 11:59:59;;;;;;;0.95;0.70;;;;;;;19.55;27.40;101359.91;1853780;77;21080;-67
2022/05/11 12:02:39;;;;;;;4.03;0.85;;;;;;;19.40;27.80;101371.59;1853821;75;21026;-67
2022/05/11 12:05:14;;;;;;;1.72;0.75;;;;;;;19.46;28.04;101369.88;1853702;77;21062;-66
2022/05/11 12:16:56;;;;;;;1.92;1.00;;;;;;;18.96;30.29;101406.03;1826446;78;21059;-67
2022/05/11 12:19:31;;;;;;;4.00;1.22;;;;;;;18.65;31.63;101403.48;1826509;78;21153;-67
2022/05/11 12:22:02;;;;;;;3.37;1.45;;;;;;;18.51;32.16;101394.98;1826361;77;21085;-67
2022/05/11 12:24:34;;;;;;;5.78;1.40;;;;;;;18.55;32.36;101400.14;1826428;78;21027;-67
2022/05/11 12:27:12;;;;;;;3.08;1.00;;;;;;;18.62;32.59;101404.14;1826461;77;21113;-67
2022/05/11 12:29:58;;;;;;;4.60;1.25;;;;;;;18.73;33.05;101400.33;1826779;77;21060;-67
2022/05/11 12:32:32;;;;;;;2.87;0.78;;;;;;;19.24;32.75;101400.64;1826293;78;21573;-67
2022/05/11 12:35:18;;;;;;;1.22;0.85;;;;;;;19.47;32.69;101390.27;1826454;78;21031;-67
2022/05/11 12:37:56;;;;;;;5.22;1.12;;;;;;;19.46;32.71;101389.91;1809147;78;21109;-67
2022/05/11 12:40:26;;;;;;;2.27;1.00;;;;;;;19.39;32.77;101384.59;1826335;78;21564;-69
2022/05/11 12:42:58;;;;;;;2.10;0.85;;;;;;;19.59;32.86;101381.45;1826496;78;21102;-67